sensor_id;sensor_type;location;lat;lon;timestamp;P1;durP1;ratioP1;P2;durP2;ratioP2
75311;SDS011;63906;55.686;37.532;2023-03-29T00:01:24;8.40;;;4.47;;
75311;SDS011;63906;55.686;37.532;2023-03-29T00:06:29;6.25;;;3.25;;
75311;SDS011;63906;55.686;37.532;2023-03-29T00:11:32;6.07;;;3.85;;
75311;SDS011;63906;55.686;37.532;2023-03-29T00:16:32;5.57;;;3.58;;
75311;SDS011;63906;55.686;37.532;2023-03-29T00:21:33;2.30;;;1.10;;
75311;SDS011;63906;55.686;37.532;2023-03-29T00:26:33;4.33;;;2.53;;
75311;SDS011;63906;55.686;37.532;2023-03-29T00:31:34;4.13;;;2.57;;
75311;SDS011;63906;55.686;37.532;2023-03-29T00:36:34;3.85;;;2.55;;
75311;SDS011;63906;55.686;37.532;2023-03-29T00:41:35;5.22;;;3.10;;
75311;SDS011;63906;55.686;37.532;2023-03-29T00:46:36;5.43;;;3.58;;
75311;SDS011;63906;55.686;37.532;2023-03-29T00:51:36;6.93;;;2.70;;
75311;SDS011;63906;55.686;37.532;2023-03-29T00:56:40;3.40;;;1.75;;
75311;SDS011;63906;55.686;37.532;2023-03-29T01:01:49;4.30;;;2.35;;
75311;SDS011;63906;55.686;37.532;2023-03-29T01:07:01;5.47;;;2.78;;
75311;SDS011;63906;55.686;37.532;2023-03-29T01:12:14;4.88;;;3.60;;
75311;SDS011;63906;55.686;37.532;2023-03-29T01:17:22;3.90;;;2.60;;
75311;SDS011;63906;55.686;37.532;2023-03-29T01:33:21;4.05;;;2.58;;
75311;SDS011;63906;55.686;37.532;2023-03-29T01:38:25;5.85;;;2.30;;
75311;SDS011;63906;55.686;37.532;2023-03-29T01:43:43;4.03;;;2.90;;
75311;SDS011;63906;55.686;37.532;2023-03-29T01:48:56;2.38;;;1.58;;
75311;SDS011;63906;55.686;37.532;2023-03-29T01:54:08;3.97;;;2.60;;
75311;SDS011;63906;55.686;37.532;2023-03-29T01:59:15;6.07;;;2.72;;
75311;SDS011;63906;55.686;37.532;2023-03-29T02:04:21;5.85;;;3.75;;
75311;SDS011;63906;55.686;37.532;2023-03-29T02:09:28;5.53;;;2.13;;
75311;SDS011;63906;55.686;37.532;2023-03-29T02:14:30;6.18;;;3.05;;
75311;SDS011;63906;55.686;37.532;2023-03-29T02:19:31;3.95;;;2.58;;
75311;SDS011;63906;55.686;37.532;2023-03-29T02:24:32;5.75;;;3.20;;
75311;SDS011;63906;55.686;37.532;2023-03-29T02:29:35;5.40;;;2.90;;
75311;SDS011;63906;55.686;37.532;2023-03-29T02:34:41;4.07;;;2.53;;
75311;SDS011;63906;55.686;37.532;2023-03-29T02:39:49;4.72;;;3.38;;
75311;SDS011;63906;55.686;37.532;2023-03-29T02:44:52;4.20;;;2.90;;
75311;SDS011;63906;55.686;37.532;2023-03-29T02:49:57;5.63;;;2.80;;
75311;SDS011;63906;55.686;37.532;2023-03-29T02:54:58;6.90;;;2.63;;
75311;SDS011;63906;55.686;37.532;2023-03-29T03:00:02;4.35;;;2.60;;
75311;SDS011;63906;55.686;37.532;2023-03-29T03:05:07;6.97;;;3.28;;
75311;SDS011;63906;55.686;37.532;2023-03-29T03:10:08;3.05;;;1.65;;
75311;SDS011;63906;55.686;37.532;2023-03-29T03:15:10;3.80;;;2.55;;
75311;SDS011;63906;55.686;37.532;2023-03-29T03:20:10;3.90;;;2.60;;
75311;SDS011;63906;55.686;37.532;2023-03-29T03:25:11;3.25;;;1.92;;
75311;SDS011;63906;55.686;37.532;2023-03-29T03:30:12;5.63;;;2.67;;
75311;SDS011;63906;55.686;37.532;2023-03-29T03:35:13;4.75;;;3.15;;
75311;SDS011;63906;55.686;37.532;2023-03-29T03:40:14;5.30;;;3.08;;
75311;SDS011;63906;55.686;37.532;2023-03-29T03:45:14;7.53;;;2.72;;
75311;SDS011;63906;55.686;37.532;2023-03-29T03:50:15;4.88;;;2.22;;
75311;SDS011;63906;55.686;37.532;2023-03-29T03:55:17;2.72;;;1.48;;
75311;SDS011;63906;55.686;37.532;2023-03-29T04:00:18;4.35;;;3.30;;
75311;SDS011;63906;55.686;37.532;2023-03-29T04:05:18;6.22;;;3.20;;
75311;SDS011;63906;55.686;37.532;2023-03-29T04:10:19;6.03;;;3.65;;
75311;SDS011;63906;55.686;37.532;2023-03-29T04:15:20;7.03;;;3.13;;
75311;SDS011;63906;55.686;37.532;2023-03-29T04:20:21;3.13;;;2.30;;
75311;SDS011;63906;55.686;37.532;2023-03-29T04:25:22;5.88;;;2.70;;
75311;SDS011;63906;55.686;37.532;2023-03-29T04:30:22;5.18;;;2.53;;
75311;SDS011;63906;55.686;37.532;2023-03-29T04:35:23;6.30;;;3.13;;
75311;SDS011;63906;55.686;37.532;2023-03-29T04:40:23;5.68;;;3.03;;
75311;SDS011;63906;55.686;37.532;2023-03-29T04:45:24;3.15;;;1.73;;
75311;SDS011;63906;55.686;37.532;2023-03-29T04:50:24;5.75;;;3.92;;
75311;SDS011;63906;55.686;37.532;2023-03-29T04:55:25;3.63;;;1.95;;
75311;SDS011;63906;55.686;37.532;2023-03-29T05:00:26;7.40;;;4.13;;
75311;SDS011;63906;55.686;37.532;2023-03-29T05:05:26;6.00;;;2.42;;
75311;SDS011;63906;55.686;37.532;2023-03-29T05:10:28;5.38;;;2.75;;
75311;SDS011;63906;55.686;37.532;2023-03-29T05:15:29;5.70;;;3.70;;
75311;SDS011;63906;55.686;37.532;2023-03-29T05:20:30;5.07;;;3.17;;
75311;SDS011;63906;55.686;37.532;2023-03-29T05:25:30;2.95;;;1.92;;
75311;SDS011;63906;55.686;37.532;2023-03-29T05:30:32;2.33;;;1.50;;
75311;SDS011;63906;55.686;37.532;2023-03-29T05:35:33;5.43;;;2.45;;
75311;SDS011;63906;55.686;37.532;2023-03-29T05:40:34;0.93;;;0.65;;
75311;SDS011;63906;55.686;37.532;2023-03-29T05:45:35;9.75;;;3.50;;
75311;SDS011;63906;55.686;37.532;2023-03-29T05:50:36;7.03;;;2.33;;
75311;SDS011;63906;55.686;37.532;2023-03-29T05:55:36;5.10;;;2.83;;
75311;SDS011;63906;55.686;37.532;2023-03-29T06:00:37;3.63;;;2.42;;
75311;SDS011;63906;55.686;37.532;2023-03-29T06:05:39;3.15;;;2.08;;
75311;SDS011;63906;55.686;37.532;2023-03-29T06:10:40;3.90;;;2.40;;
75311;SDS011;63906;55.686;37.532;2023-03-29T06:15:41;8.25;;;3.45;;
75311;SDS011;63906;55.686;37.532;2023-03-29T06:20:41;5.90;;;1.90;;
75311;SDS011;63906;55.686;37.532;2023-03-29T06:25:42;4.75;;;2.38;;
75311;SDS011;63906;55.686;37.532;2023-03-29T06:30:44;7.00;;;1.77;;
75311;SDS011;63906;55.686;37.532;2023-03-29T06:35:46;5.00;;;2.30;;
75311;SDS011;63906;55.686;37.532;2023-03-29T06:40:47;6.93;;;3.50;;
75311;SDS011;63906;55.686;37.532;2023-03-29T06:45:48;4.28;;;2.65;;
75311;SDS011;63906;55.686;37.532;2023-03-29T06:50:48;3.00;;;2.17;;
75311;SDS011;63906;55.686;37.532;2023-03-29T06:55:52;7.35;;;3.72;;
75311;SDS011;63906;55.686;37.532;2023-03-29T07:00:52;4.85;;;2.47;;
75311;SDS011;63906;55.686;37.532;2023-03-29T07:05:58;6.50;;;1.58;;
75311;SDS011;63906;55.686;37.532;2023-03-29T07:11:12;6.85;;;3.38;;
75311;SDS011;63906;55.686;37.532;2023-03-29T07:16:14;4.07;;;2.42;;
75311;SDS011;63906;55.686;37.532;2023-03-29T07:21:15;7.32;;;3.67;;
75311;SDS011;63906;55.686;37.532;2023-03-29T07:26:16;3.88;;;2.22;;
75311;SDS011;63906;55.686;37.532;2023-03-29T07:31:19;3.28;;;2.05;;
75311;SDS011;63906;55.686;37.532;2023-03-29T07:36:20;3.78;;;2.08;;
75311;SDS011;63906;55.686;37.532;2023-03-29T07:41:20;6.10;;;2.78;;
75311;SDS011;63906;55.686;37.532;2023-03-29T07:46:21;5.65;;;3.10;;
75311;SDS011;63906;55.686;37.532;2023-03-29T07:51:22;4.78;;;2.50;;
75311;SDS011;63906;55.686;37.532;2023-03-29T07:56:23;6.13;;;2.97;;
75311;SDS011;63906;55.686;37.532;2023-03-29T08:01:23;4.45;;;1.75;;
75311;SDS011;63906;55.686;37.532;2023-03-29T08:06:24;7.45;;;2.90;;
75311;SDS011;63906;55.686;37.532;2023-03-29T08:11:26;3.72;;;2.28;;
75311;SDS011;63906;55.686;37.532;2023-03-29T08:16:27;5.32;;;2.05;;
75311;SDS011;63906;55.686;37.532;2023-03-29T08:21:27;4.28;;;2.50;;
75311;SDS011;63906;55.686;37.532;2023-03-29T08:26:28;4.55;;;2.58;;
75311;SDS011;63906;55.686;37.532;2023-03-29T08:31:29;3.40;;;1.88;;
75311;SDS011;63906;55.686;37.532;2023-03-29T08:36:29;3.20;;;2.08;;
75311;SDS011;63906;55.686;37.532;2023-03-29T08:47:16;6.88;;;3.70;;
75311;SDS011;63906;55.686;37.532;2023-03-29T08:51:59;4.32;;;2.67;;
75311;SDS011;63906;55.686;37.532;2023-03-29T08:57:04;8.00;;;3.67;;
75311;SDS011;63906;55.686;37.532;2023-03-29T09:02:15;5.57;;;3.33;;
75311;SDS011;63906;55.686;37.532;2023-03-29T09:07:21;4.13;;;2.67;;
75311;SDS011;63906;55.686;37.532;2023-03-29T09:12:28;3.50;;;2.40;;
75311;SDS011;63906;55.686;37.532;2023-03-29T09:28:04;7.07;;;3.85;;
75311;SDS011;63906;55.686;37.532;2023-03-29T09:38:11;6.60;;;3.42;;
75311;SDS011;63906;55.686;37.532;2023-03-29T09:43:15;6.07;;;3.38;;
75311;SDS011;63906;55.686;37.532;2023-03-29T09:48:37;7.57;;;3.85;;
75311;SDS011;63906;55.686;37.532;2023-03-29T09:53:40;7.50;;;4.75;;
75311;SDS011;63906;55.686;37.532;2023-03-29T09:58:41;6.10;;;3.75;;
75311;SDS011;63906;55.686;37.532;2023-03-29T10:03:47;9.02;;;3.70;;
75311;SDS011;63906;55.686;37.532;2023-03-29T10:08:51;6.95;;;4.18;;
75311;SDS011;63906;55.686;37.532;2023-03-29T10:19:29;7.68;;;4.60;;
75311;SDS011;63906;55.686;37.532;2023-03-29T10:24:34;5.00;;;3.30;;
75311;SDS011;63906;55.686;37.532;2023-03-29T10:29:39;9.02;;;4.47;;
75311;SDS011;63906;55.686;37.532;2023-03-29T10:34:41;6.82;;;3.97;;
75311;SDS011;63906;55.686;37.532;2023-03-29T10:39:44;9.00;;;6.00;;
75311;SDS011;63906;55.686;37.532;2023-03-29T10:44:54;5.55;;;3.53;;
75311;SDS011;63906;55.686;37.532;2023-03-29T10:49:56;5.32;;;3.50;;
75311;SDS011;63906;55.686;37.532;2023-03-29T10:55:00;8.20;;;4.82;;
75311;SDS011;63906;55.686;37.532;2023-03-29T11:11:02;8.90;;;4.85;;
75311;SDS011;63906;55.686;37.532;2023-03-29T11:42:17;6.38;;;4.30;;
75311;SDS011;63906;55.686;37.532;2023-03-29T11:47:22;5.10;;;3.38;;
75311;SDS011;63906;55.686;37.532;2023-03-29T11:52:28;4.95;;;3.30;;
75311;SDS011;63906;55.686;37.532;2023-03-29T12:02:55;5.47;;;3.55;;
75311;SDS011;63906;55.686;37.532;2023-03-29T12:08:05;5.38;;;4.00;;
75311;SDS011;63906;55.686;37.532;2023-03-29T12:13:23;6.18;;;3.25;;
75311;SDS011;63906;55.686;37.532;2023-03-29T12:18:35;6.78;;;3.63;;
75311;SDS011;63906;55.686;37.532;2023-03-29T12:23:40;6.22;;;3.20;;
75311;SDS011;63906;55.686;37.532;2023-03-29T12:39:30;6.53;;;3.88;;
75311;SDS011;63906;55.686;37.532;2023-03-29T12:44:32;4.70;;;2.28;;
75311;SDS011;63906;55.686;37.532;2023-03-29T12:49:34;3.42;;;2.00;;
75311;SDS011;63906;55.686;37.532;2023-03-29T12:54:37;6.80;;;4.25;;
75311;SDS011;63906;55.686;37.532;2023-03-29T12:59:38;6.32;;;3.70;;
75311;SDS011;63906;55.686;37.532;2023-03-29T13:14:54;3.50;;;2.50;;
75311;SDS011;63906;55.686;37.532;2023-03-29T13:20:19;4.90;;;2.92;;
75311;SDS011;63906;55.686;37.532;2023-03-29T13:36:06;3.65;;;2.25;;
75311;SDS011;63906;55.686;37.532;2023-03-29T13:41:30;4.07;;;2.90;;
75311;SDS011;63906;55.686;37.532;2023-03-29T13:51:37;2.97;;;2.20;;
75311;SDS011;63906;55.686;37.532;2023-03-29T14:02:15;5.40;;;3.38;;
75311;SDS011;63906;55.686;37.532;2023-03-29T14:07:31;5.15;;;2.75;;
75311;SDS011;63906;55.686;37.532;2023-03-29T14:12:36;6.28;;;3.25;;
75311;SDS011;63906;55.686;37.532;2023-03-29T14:17:38;7.90;;;3.00;;
75311;SDS011;63906;55.686;37.532;2023-03-29T14:22:40;3.85;;;2.17;;
75311;SDS011;63906;55.686;37.532;2023-03-29T14:27:42;5.35;;;3.05;;
75311;SDS011;63906;55.686;37.532;2023-03-29T14:32:44;5.43;;;3.20;;
75311;SDS011;63906;55.686;37.532;2023-03-29T14:37:45;5.30;;;2.85;;
75311;SDS011;63906;55.686;37.532;2023-03-29T14:42:47;5.03;;;2.95;;
75311;SDS011;63906;55.686;37.532;2023-03-29T14:52:52;6.30;;;3.42;;
75311;SDS011;63906;55.686;37.532;2023-03-29T14:57:53;5.68;;;3.85;;
75311;SDS011;63906;55.686;37.532;2023-03-29T15:02:58;3.00;;;2.33;;
75311;SDS011;63906;55.686;37.532;2023-03-29T15:08:01;5.25;;;3.30;;
75311;SDS011;63906;55.686;37.532;2023-03-29T15:13:02;7.00;;;4.13;;
75311;SDS011;63906;55.686;37.532;2023-03-29T15:18:04;5.35;;;4.07;;
75311;SDS011;63906;55.686;37.532;2023-03-29T15:28:19;6.23;;;3.90;;
75311;SDS011;63906;55.686;37.532;2023-03-29T15:33:31;6.63;;;4.38;;
75311;SDS011;63906;55.686;37.532;2023-03-29T15:38:34;5.20;;;3.13;;
75311;SDS011;63906;55.686;37.532;2023-03-29T15:43:38;7.78;;;4.55;;
75311;SDS011;63906;55.686;37.532;2023-03-29T15:48:40;4.82;;;3.60;;
75311;SDS011;63906;55.686;37.532;2023-03-29T15:53:41;6.05;;;4.25;;
75311;SDS011;63906;55.686;37.532;2023-03-29T15:58:42;6.05;;;4.20;;
75311;SDS011;63906;55.686;37.532;2023-03-29T16:03:44;7.20;;;4.57;;
75311;SDS011;63906;55.686;37.532;2023-03-29T16:08:44;7.50;;;5.43;;
75311;SDS011;63906;55.686;37.532;2023-03-29T16:13:45;6.15;;;4.40;;
75311;SDS011;63906;55.686;37.532;2023-03-29T16:18:45;8.30;;;5.07;;
75311;SDS011;63906;55.686;37.532;2023-03-29T16:23:46;9.00;;;7.10;;
75311;SDS011;63906;55.686;37.532;2023-03-29T16:28:47;8.18;;;5.50;;
75311;SDS011;63906;55.686;37.532;2023-03-29T16:33:47;9.85;;;5.10;;
75311;SDS011;63906;55.686;37.532;2023-03-29T16:38:48;9.05;;;5.38;;
75311;SDS011;63906;55.686;37.532;2023-03-29T16:43:49;8.70;;;5.45;;
75311;SDS011;63906;55.686;37.532;2023-03-29T16:48:50;9.73;;;5.93;;
75311;SDS011;63906;55.686;37.532;2023-03-29T16:53:52;6.55;;;4.55;;
75311;SDS011;63906;55.686;37.532;2023-03-29T16:58:53;9.93;;;5.72;;
75311;SDS011;63906;55.686;37.532;2023-03-29T17:03:53;11.43;;;6.25;;
75311;SDS011;63906;55.686;37.532;2023-03-29T17:08:54;11.93;;;7.53;;
75311;SDS011;63906;55.686;37.532;2023-03-29T17:13:54;9.77;;;6.00;;
75311;SDS011;63906;55.686;37.532;2023-03-29T17:18:58;9.27;;;5.35;;
75311;SDS011;63906;55.686;37.532;2023-03-29T17:23:59;10.68;;;5.80;;
75311;SDS011;63906;55.686;37.532;2023-03-29T17:28:59;10.63;;;6.60;;
75311;SDS011;63906;55.686;37.532;2023-03-29T17:34:00;12.63;;;7.25;;
75311;SDS011;63906;55.686;37.532;2023-03-29T17:39:01;12.52;;;7.50;;
75311;SDS011;63906;55.686;37.532;2023-03-29T17:44:03;10.93;;;6.20;;
75311;SDS011;63906;55.686;37.532;2023-03-29T17:49:04;12.30;;;6.68;;
75311;SDS011;63906;55.686;37.532;2023-03-29T17:54:05;11.43;;;6.80;;
75311;SDS011;63906;55.686;37.532;2023-03-29T17:59:06;13.57;;;7.97;;
75311;SDS011;63906;55.686;37.532;2023-03-29T18:04:07;10.88;;;6.55;;
75311;SDS011;63906;55.686;37.532;2023-03-29T18:09:07;11.45;;;6.70;;
75311;SDS011;63906;55.686;37.532;2023-03-29T18:14:09;12.50;;;6.75;;
75311;SDS011;63906;55.686;37.532;2023-03-29T18:19:10;9.38;;;6.20;;
75311;SDS011;63906;55.686;37.532;2023-03-29T18:24:12;15.05;;;7.90;;
75311;SDS011;63906;55.686;37.532;2023-03-29T18:29:13;14.90;;;10.00;;
75311;SDS011;63906;55.686;37.532;2023-03-29T18:34:13;11.70;;;5.50;;
75311;SDS011;63906;55.686;37.532;2023-03-29T18:39:14;14.02;;;8.85;;
75311;SDS011;63906;55.686;37.532;2023-03-29T18:44:15;11.35;;;6.85;;
75311;SDS011;63906;55.686;37.532;2023-03-29T18:49:16;16.40;;;9.40;;
75311;SDS011;63906;55.686;37.532;2023-03-29T18:54:16;12.80;;;8.30;;
75311;SDS011;63906;55.686;37.532;2023-03-29T18:59:17;11.98;;;6.40;;
75311;SDS011;63906;55.686;37.532;2023-03-29T19:04:18;16.33;;;9.07;;
75311;SDS011;63906;55.686;37.532;2023-03-29T19:09:19;12.13;;;7.40;;
75311;SDS011;63906;55.686;37.532;2023-03-29T19:14:19;12.02;;;7.28;;
75311;SDS011;63906;55.686;37.532;2023-03-29T19:19:23;13.00;;;6.82;;
75311;SDS011;63906;55.686;37.532;2023-03-29T19:24:25;11.45;;;6.90;;
75311;SDS011;63906;55.686;37.532;2023-03-29T19:29:27;10.73;;;6.85;;
75311;SDS011;63906;55.686;37.532;2023-03-29T19:34:27;14.27;;;9.38;;
75311;SDS011;63906;55.686;37.532;2023-03-29T19:39:29;14.82;;;7.90;;
75311;SDS011;63906;55.686;37.532;2023-03-29T19:44:30;11.45;;;7.10;;
75311;SDS011;63906;55.686;37.532;2023-03-29T19:49:31;8.73;;;5.80;;
75311;SDS011;63906;55.686;37.532;2023-03-29T19:54:40;12.45;;;5.18;;
75311;SDS011;63906;55.686;37.532;2023-03-29T19:59:41;14.25;;;9.00;;
75311;SDS011;63906;55.686;37.532;2023-03-29T20:04:42;9.27;;;5.30;;
75311;SDS011;63906;55.686;37.532;2023-03-29T20:09:42;12.20;;;7.30;;
75311;SDS011;63906;55.686;37.532;2023-03-29T20:14:43;13.05;;;7.93;;
75311;SDS011;63906;55.686;37.532;2023-03-29T20:19:44;11.52;;;6.47;;
75311;SDS011;63906;55.686;37.532;2023-03-29T20:24:44;13.77;;;8.00;;
75311;SDS011;63906;55.686;37.532;2023-03-29T20:29:45;14.02;;;8.23;;
75311;SDS011;63906;55.686;37.532;2023-03-29T20:34:46;14.38;;;7.93;;
75311;SDS011;63906;55.686;37.532;2023-03-29T20:39:47;13.63;;;7.93;;
75311;SDS011;63906;55.686;37.532;2023-03-29T20:44:51;12.07;;;6.82;;
75311;SDS011;63906;55.686;37.532;2023-03-29T20:49:52;15.68;;;9.45;;
75311;SDS011;63906;55.686;37.532;2023-03-29T20:54:53;14.10;;;8.13;;
75311;SDS011;63906;55.686;37.532;2023-03-29T20:59:54;13.00;;;7.78;;
75311;SDS011;63906;55.686;37.532;2023-03-29T21:04:55;15.80;;;8.45;;
75311;SDS011;63906;55.686;37.532;2023-03-29T21:09:59;13.45;;;8.02;;
75311;SDS011;63906;55.686;37.532;2023-03-29T21:15:00;18.23;;;9.90;;
75311;SDS011;63906;55.686;37.532;2023-03-29T21:20:01;18.35;;;9.93;;
75311;SDS011;63906;55.686;37.532;2023-03-29T21:25:06;17.95;;;9.98;;
75311;SDS011;63906;55.686;37.532;2023-03-29T21:30:08;12.57;;;6.47;;
75311;SDS011;63906;55.686;37.532;2023-03-29T21:35:10;19.52;;;13.25;;
75311;SDS011;63906;55.686;37.532;2023-03-29T21:40:11;20.83;;;11.77;;
75311;SDS011;63906;55.686;37.532;2023-03-29T21:45:12;15.90;;;7.75;;
75311;SDS011;63906;55.686;37.532;2023-03-29T21:50:12;21.42;;;9.90;;
75311;SDS011;63906;55.686;37.532;2023-03-29T21:55:14;13.70;;;6.38;;
75311;SDS011;63906;55.686;37.532;2023-03-29T22:00:14;20.65;;;10.52;;
75311;SDS011;63906;55.686;37.532;2023-03-29T22:05:16;22.90;;;12.05;;
75311;SDS011;63906;55.686;37.532;2023-03-29T22:10:18;19.85;;;9.32;;
75311;SDS011;63906;55.686;37.532;2023-03-29T22:15:21;16.23;;;8.10;;
75311;SDS011;63906;55.686;37.532;2023-03-29T22:20:22;22.13;;;11.32;;
75311;SDS011;63906;55.686;37.532;2023-03-29T22:25:23;16.73;;;8.40;;
75311;SDS011;63906;55.686;37.532;2023-03-29T22:30:23;20.93;;;10.90;;
75311;SDS011;63906;55.686;37.532;2023-03-29T22:35:24;17.25;;;8.93;;
75311;SDS011;63906;55.686;37.532;2023-03-29T22:40:25;17.35;;;6.93;;
75311;SDS011;63906;55.686;37.532;2023-03-29T22:45:25;15.57;;;8.45;;
75311;SDS011;63906;55.686;37.532;2023-03-29T22:50:27;19.52;;;9.00;;
75311;SDS011;63906;55.686;37.532;2023-03-29T22:55:27;16.95;;;7.95;;
75311;SDS011;63906;55.686;37.532;2023-03-29T23:00:28;20.95;;;10.88;;
75311;SDS011;63906;55.686;37.532;2023-03-29T23:05:28;20.83;;;9.40;;
75311;SDS011;63906;55.686;37.532;2023-03-29T23:10:29;18.75;;;9.70;;
75311;SDS011;63906;55.686;37.532;2023-03-29T23:15:30;20.35;;;10.85;;
75311;SDS011;63906;55.686;37.532;2023-03-29T23:20:31;22.25;;;10.18;;
75311;SDS011;63906;55.686;37.532;2023-03-29T23:25:32;21.95;;;9.80;;
75311;SDS011;63906;55.686;37.532;2023-03-29T23:30:32;18.02;;;8.68;;
75311;SDS011;63906;55.686;37.532;2023-03-29T23:35:36;21.27;;;9.38;;
75311;SDS011;63906;55.686;37.532;2023-03-29T23:40:36;18.98;;;8.88;;
75311;SDS011;63906;55.686;37.532;2023-03-29T23:45:37;17.05;;;8.40;;
75311;SDS011;63906;55.686;37.532;2023-03-29T23:50:38;24.67;;;11.68;;
75311;SDS011;63906;55.686;37.532;2023-03-29T23:55:39;26.25;;;13.20;;
